Time;durP1;ratioP1;P1;durP2;ratioP2;P2;SDS_P1;SDS_P2;PMS_P1;PMS_P2;Temp;Humidity;BMP_temperature;BMP_pressure;BME280_temperature;BME280_humidity;BME280_pressure;Samples;Min_cycle;Max_cycle;Signal;HPM_P1;HPM_P2
2021/07/07 00:01:26;;;;;;;;;;;;;;;;;;5083819;28;19932;-70
2021/07/07 00:03:53;;;;;;;;;;;;;;;;;;5079412;28;19956;-71
2021/07/07 00:06:20;;;;;;;;;;;;;;;;;;5076170;28;19925;-71
2021/07/07 00:08:47;;;;;;;;;;;;;;;;;;5079581;28;19928;-71
2021/07/07 00:11:14;;;;;;;;;;;;;;;;;;5075964;28;19928;-71
2021/07/07 00:13:41;;;;;;;;;;;;;;;;;;5078290;28;19978;-69
2021/07/07 00:16:08;;;;;;;;;;;;;;;;;;5074395;28;20393;-70
2021/07/07 00:18:35;;;;;;;;;;;;;;;;;;5073673;28;20260;-70
2021/07/07 00:21:03;;;;;;;;;;;;;;;;;;5071812;28;19925;-71
2021/07/07 00:23:30;;;;;;;;;;;;;;;;;;5075520;28;19924;-71
2021/07/07 00:25:57;;;;;;;;;;;;;;;;;;5081696;28;19942;-71
2021/07/07 00:28:24;;;;;;;;;;;;;;;;;;5076032;28;19955;-70
2021/07/07 00:30:51;;;;;;;;;;;;;;;;;;5083875;28;19935;-71
2021/07/07 00:33:18;;;;;;;;;;;;;;;;;;5075232;28;19931;-71
2021/07/07 00:35:45;;;;;;;;;;;;;;;;;;5076477;28;19925;-71
2021/07/07 00:38:13;;;;;;;;;;;;;;;;;;5080016;28;19932;-71
2021/07/07 00:40:40;;;;;;;;;;;;;;;;;;5081537;28;19948;-70
2021/07/07 00:43:07;;;;;;;;;;;;;;;;;;5079008;28;19924;-70
2021/07/07 00:45:34;;;;;;;;;;;;;;;;;;5079204;28;19933;-71
2021/07/07 00:48:01;;;;;;;;;;;;;;;;;;5081540;28;19924;-70
2021/07/07 00:50:28;;;;;;;;;;;;;;;;;;5086632;28;19925;-71
2021/07/07 00:52:55;;;;;;;;;;;;;;;;;;5082641;28;19931;-70
2021/07/07 00:55:22;;;;;;;;;;;;;;;;;;5081971;28;19974;-70
2021/07/07 00:57:50;;;;;;;;;;;;;;;;;;5085318;28;19988;-70
2021/07/07 01:00:17;;;;;;;;;;;;;;;;;;5085573;28;19928;-70
2021/07/07 01:02:44;;;;;;;;;;;;;;;;;;5079945;28;19928;-70
2021/07/07 01:05:11;;;;;;;;;;;;;;;;;;5083017;28;19964;-70
2021/07/07 01:07:38;;;;;;;;;;;;;;;;;;5086689;28;19992;-70
2021/07/07 01:10:06;;;;;;;;;;;;;;;;;;5079381;28;19925;-69
2021/07/07 01:12:33;;;;;;;;;;;;;;;;;;5082761;28;19925;-71
2021/07/07 01:15:00;;;;;;;;;;;;;;;;;;5082161;28;19935;-72
2021/07/07 01:17:34;;;;;;;;;;;;;;;;;;5077552;28;19924;-70
2021/07/07 01:20:01;;;;;;;;;;;;;;;;;;5087560;28;19928;-72
2021/07/07 01:22:28;;;;;;;;;;;;;;;;;;5081477;28;19959;-72
2021/07/07 01:24:55;;;;;;;;;;;;;;;;;;5081560;28;19924;-69
2021/07/07 01:27:22;;;;;;;;;;;;;;;;;;5084009;28;19924;-71
2021/07/07 01:29:49;;;;;;;;;;;;;;;;;;5077121;28;20343;-71
2021/07/07 01:32:16;;;;;;;;;;;;;;;;;;5080879;28;19970;-70
2021/07/07 01:34:43;;;;;;;;;;;;;;;;;;5079341;28;20335;-69
2021/07/07 01:37:10;;;;;;;;;;;;;;;;;;5079304;28;19970;-71
2021/07/07 01:39:37;;;;;;;;;;;;;;;;;;5084073;28;19943;-71
2021/07/07 01:42:04;;;;;;;;;;;;;;;;;;5075014;28;19974;-69
2021/07/07 01:44:31;;;;;;;;;;;;;;;;;;5081659;28;19935;-71
2021/07/07 01:47:00;;;;;;;;;;;;;;;;;;5080360;28;19928;-72
2021/07/07 01:49:27;;;;;;;;;;;;;;;;;;5084172;28;19996;-72
2021/07/07 01:51:54;;;;;;;;;;;;;;;;;;5080197;28;19987;-70
2021/07/07 01:54:21;;;;;;;;;;;;;;;;;;5081782;28;19932;-71
2021/07/07 01:56:48;;;;;;;;;;;;;;;;;;5079121;28;19928;-70
2021/07/07 01:59:15;;;;;;;;;;;;;;;;;;5076868;28;19925;-70
2021/07/07 02:01:43;;;;;;;;;;;;;;;;;;5088271;28;19925;-70
2021/07/07 02:04:10;;;;;;;;;;;;;;;;;;5085677;28;20359;-71
2021/07/07 02:06:37;;;;;;;;;;;;;;;;;;5085858;28;19908;-71
2021/07/07 02:09:05;;;;;;;;;;;;;;;;;;5080649;28;19931;-69
2021/07/07 02:11:32;;;;;;;;;;;;;;;;;;5076539;28;19924;-68
2021/07/07 02:14:00;;;;;;;;;;;;;;;;;;5085583;28;19941;-70
2021/07/07 02:16:27;;;;;;;;;;;;;;;;;;5080407;28;19933;-70
2021/07/07 02:18:54;;;;;;;;;;;;;;;;;;5078957;28;19995;-70
2021/07/07 02:21:21;;;;;;;;;;;;;;;;;;5083695;28;19924;-70
2021/07/07 02:23:48;;;;;;;;;;;;;;;;;;5084197;28;20047;-69
2021/07/07 02:26:16;;;;;;;;;;;;;;;;;;5080288;28;20357;-71
2021/07/07 02:28:43;;;;;;;;;;;;;;;;;;5085153;28;19924;-68
2021/07/07 02:31:10;;;;;;;;;;;;;;;;;;5086224;28;19984;-76
2021/07/07 02:33:37;;;;;;;;;;;;;;;;;;5075718;28;19962;-69
2021/07/07 02:36:04;;;;;;;;;;;;;;;;;;5078718;28;19925;-72
2021/07/07 02:38:32;;;;;;;;;;;;;;;;;;5081560;28;19925;-71
2021/07/07 02:40:59;;;;;;;;;;;;;;;;;;5081703;28;19952;-72
2021/07/07 02:43:26;;;;;;;;;;;;;;;;;;5083549;28;20368;-71
2021/07/07 02:45:53;;;;;;;;;;;;;;;;;;5081268;28;19935;-71
2021/07/07 02:48:20;;;;;;;;;;;;;;;;;;5088196;28;19925;-72
2021/07/07 02:50:48;;;;;;;;;;;;;;;;;;5081754;28;19929;-69
2021/07/07 02:53:15;;;;;;;;;;;;;;;;;;5088019;28;19932;-70
2021/07/07 02:55:42;;;;;;;;;;;;;;;;;;5081159;28;20027;-69
2021/07/07 02:58:09;;;;;;;;;;;;;;;;;;5087594;28;19933;-70
2021/07/07 03:00:36;;;;;;;;;;;;;;;;;;5090710;28;20003;-70
2021/07/07 03:03:03;;;;;;;;;;;;;;;;;;5089735;28;19951;-70
2021/07/07 03:05:33;;;;;;;;;;;;;;;;;;5086595;28;19924;-69
2021/07/07 03:08:00;;;;;;;;;;;;;;;;;;5092430;28;19966;-70
2021/07/07 03:10:27;;;;;;;;;;;;;;;;;;5078791;28;19925;-71
2021/07/07 03:12:56;;;;;;;;;;;;;;;;;;5090033;28;19935;-70
2021/07/07 03:15:25;;;;;;;;;;;;;;;;;;5083498;28;19947;-68
2021/07/07 03:17:52;;;;;;;;;;;;;;;;;;5084290;28;19925;-71
2021/07/07 03:20:19;;;;;;;;;;;;;;;;;;5084871;28;19928;-70
2021/07/07 03:22:47;;;;;;;;;;;;;;;;;;5086022;28;19924;-70
2021/07/07 03:25:14;;;;;;;;;;;;;;;;;;5085964;28;19932;-71
2021/07/07 03:27:41;;;;;;;;;;;;;;;;;;5081863;28;19924;-68
2021/07/07 03:30:08;;;;;;;;;;;;;;;;;;5088490;28;19947;-71
2021/07/07 03:32:35;;;;;;;;;;;;;;;;;;5087177;28;19931;-72
2021/07/07 03:37:35;;;;;;;;;;;;;;;;;;5058334;28;19979;-65
2021/07/07 03:40:02;;;;;;;;;;;;;;;;;;5054502;28;19931;-64
2021/07/07 03:42:29;;;;;;;;;;;;;;;;;;5053444;28;20292;-64
2021/07/07 03:44:56;;;;;;;;;;;;;;;;;;5056822;28;19925;-65
2021/07/07 03:47:22;;;;;;;;;;;;;;;;;;5065350;28;19924;-65
2021/07/07 03:49:49;;;;;;;;;;;;;;;;;;5062393;28;19929;-65
2021/07/07 03:52:16;;;;;;;;;;;;;;;;;;5064999;28;20300;-65
2021/07/07 03:54:43;;;;;;;;;;;;;;;;;;5059667;28;19925;-65
2021/07/07 03:57:10;;;;;;;;;;;;;;;;;;5061793;28;19925;-65
2021/07/07 03:59:37;;;;;;;;;;;;;;;;;;5068454;28;19931;-66
2021/07/07 04:02:04;;;;;;;;;;;;;;;;;;5066528;28;20028;-65
2021/07/07 04:04:31;;;;;;;;;;;;;;;;;;5062592;28;19924;-65
2021/07/07 04:06:59;;;;;;;;;;;;;;;;;;5054675;28;19946;-65
2021/07/07 04:09:28;;;;;;;;;;;;;;;;;;5056554;28;19980;-65
2021/07/07 04:11:55;;;;;;;;;;;;;;;;;;5068869;28;20011;-65
2021/07/07 04:14:24;;;;;;;;;;;;;;;;;;5066009;28;19931;-65
2021/07/07 04:16:51;;;;;;;;;;;;;;;;;;5062034;28;19932;-65
2021/07/07 04:19:18;;;;;;;;;;;;;;;;;;5055057;28;19932;-65
2021/07/07 04:21:45;;;;;;;;;;;;;;;;;;5055829;28;19932;-64
2021/07/07 04:24:12;;;;;;;;;;;;;;;;;;5068200;28;19947;-65
2021/07/07 04:26:39;;;;;;;;;;;;;;;;;;5061625;28;19931;-64
2021/07/07 04:29:06;;;;;;;;;;;;;;;;;;5062714;28;20342;-65
2021/07/07 04:31:32;;;;;;;;;;;;;;;;;;5058953;28;20015;-65
2021/07/07 04:33:59;;;;;;;;;;;;;;;;;;5061901;28;19935;-64
2021/07/07 04:36:26;;;;;;;;;;;;;;;;;;5056126;28;19924;-64
2021/07/07 04:38:53;;;;;;;;;;;;;;;;;;5062568;28;20260;-64
2021/07/07 04:41:20;;;;;;;;;;;;;;;;;;5057063;28;19924;-65
2021/07/07 04:43:47;;;;;;;;;;;;;;;;;;5066575;28;19931;-64
2021/07/07 04:46:14;;;;;;;;;;;;;;;;;;5053664;28;19924;-64
2021/07/07 04:48:41;;;;;;;;;;;;;;;;;;5059065;28;19924;-64
2021/07/07 04:51:08;;;;;;;;;;;;;;;;;;5056625;28;20023;-65
2021/07/07 04:53:35;;;;;;;;;;;;;;;;;;5064621;28;19932;-65
2021/07/07 04:56:02;;;;;;;;;;;;;;;;;;5063216;28;19959;-65
2021/07/07 04:58:29;;;;;;;;;;;;;;;;;;5067725;28;19932;-65
2021/07/07 05:00:56;;;;;;;;;;;;;;;;;;5070802;28;20415;-66
2021/07/07 05:03:23;;;;;;;;;;;;;;;;;;5061922;28;19925;-65
2021/07/07 05:05:50;;;;;;;;;;;;;;;;;;5063981;28;20315;-66
2021/07/07 05:08:17;;;;;;;;;;;;;;;;;;5055068;28;19925;-65
2021/07/07 05:10:44;;;;;;;;;;;;;;;;;;5066475;28;20283;-65
2021/07/07 05:13:11;;;;;;;;;;;;;;;;;;5056719;28;19931;-66
2021/07/07 05:15:38;;;;;;;;;;;;;;;;;;5058807;28;19940;-65
2021/07/07 05:18:06;;;;;;;;;;;;;;;;;;5065307;28;20016;-65
2021/07/07 05:20:33;;;;;;;;;;;;;;;;;;5068488;28;19932;-65
2021/07/07 05:23:06;;;;;;;;;;;;;;;;;;5064899;28;19939;-65
2021/07/07 05:25:33;;;;;;;;;;;;;;;;;;5060149;28;19924;-64
2021/07/07 05:28:01;;;;;;;;;;;;;;;;;;5053634;28;19928;-66
2021/07/07 05:30:28;;;;;;;;;;;;;;;;;;5059925;28;19979;-66
2021/07/07 05:32:55;;;;;;;;;;;;;;;;;;5064564;28;19931;-66
2021/07/07 05:35:22;;;;;;;;;;;;;;;;;;5059664;28;20406;-66
2021/07/07 05:37:49;;;;;;;;;;;;;;;;;;5061601;28;20369;-66
2021/07/07 05:40:17;;;;;;;;;;;;;;;;;;5059802;28;20134;-67
2021/07/07 05:42:49;;;;;;;;;;;;;;;;;;5063304;28;20368;-67
2021/07/07 05:45:16;;;;;;;;;;;;;;;;;;5065920;28;20295;-67
2021/07/07 05:47:43;;;;;;;;;;;;;;;;;;5066220;28;19924;-66
2021/07/07 05:50:10;;;;;;;;;;;;;;;;;;5056667;28;20411;-66
2021/07/07 05:52:37;;;;;;;;;;;;;;;;;;5063962;28;19931;-67
2021/07/07 05:55:04;;;;;;;;;;;;;;;;;;5058864;28;19952;-67
2021/07/07 05:57:38;;;;;;;;;;;;;;;;;;5056464;28;20307;-67
2021/07/07 06:00:05;;;;;;;;;;;;;;;;;;5056406;28;19932;-66
2021/07/07 06:02:32;;;;;;;;;;;;;;;;;;5061161;28;19925;-67
2021/07/07 06:04:58;;;;;;;;;;;;;;;;;;5058367;28;19924;-67
2021/07/07 06:07:25;;;;;;;;;;;;;;;;;;5059126;28;20438;-67
2021/07/07 06:09:52;;;;;;;;;;;;;;;;;;5060228;28;19931;-66
2021/07/07 06:12:19;;;;;;;;;;;;;;;;;;5059689;28;19929;-66
2021/07/07 06:14:46;;;;;;;;;;;;;;;;;;5060610;28;19925;-67
2021/07/07 06:17:13;;;;;;;;;;;;;;;;;;5058498;28;19928;-66
2021/07/07 06:19:40;;;;;;;;;;;;;;;;;;5056502;28;19991;-67
2021/07/07 06:22:07;;;;;;;;;;;;;;;;;;5055906;28;19933;-66
2021/07/07 06:24:34;;;;;;;;;;;;;;;;;;5059256;28;19925;-66
2021/07/07 06:27:01;;;;;;;;;;;;;;;;;;5060517;28;19924;-67
2021/07/07 06:29:28;;;;;;;;;;;;;;;;;;5058150;28;19924;-67
2021/07/07 06:31:55;;;;;;;;;;;;;;;;;;5065932;28;19939;-67
2021/07/07 06:34:22;;;;;;;;;;;;;;;;;;5063673;28;19932;-67
2021/07/07 06:36:49;;;;;;;;;;;;;;;;;;5062322;28;19931;-65
2021/07/07 06:39:16;;;;;;;;;;;;;;;;;;5067105;28;19931;-66
2021/07/07 06:41:43;;;;;;;;;;;;;;;;;;5061401;28;19932;-64
2021/07/07 06:44:10;;;;;;;;;;;;;;;;;;5064925;28;19928;-65
2021/07/07 06:46:37;;;;;;;;;;;;;;;;;;5066742;28;19924;-65
2021/07/07 06:49:04;;;;;;;;;;;;;;;;;;5060566;28;19940;-65
2021/07/07 06:51:31;;;;;;;;;;;;;;;;;;5059782;28;20277;-65
2021/07/07 06:53:57;;;;;;;;;;;;;;;;;;5072007;28;20011;-66
2021/07/07 06:56:24;;;;;;;;;;;;;;;;;;5066804;28;20356;-65
2021/07/07 06:58:51;;;;;;;;;;;;;;;;;;5077723;28;19928;-65
2021/07/07 07:01:18;;;;;;;;;;;;;;;;;;5066394;28;20015;-65
2021/07/07 07:03:45;;;;;;;;;;;;;;;;;;5071878;28;19932;-66
2021/07/07 07:06:12;;;;;;;;;;;;;;;;;;5065397;28;19931;-65
2021/07/07 07:08:39;;;;;;;;;;;;;;;;;;5067212;28;19931;-66
2021/07/07 07:11:06;;;;;;;;;;;;;;;;;;5076500;28;19924;-65
2021/07/07 07:13:34;;;;;;;;;;;;;;;;;;5067617;28;19930;-65
2021/07/07 07:16:02;;;;;;;;;;;;;;;;;;5067899;28;19932;-66
2021/07/07 07:18:29;;;;;;;;;;;;;;;;;;5072111;28;19931;-64
2021/07/07 07:20:56;;;;;;;;;;;;;;;;;;5070155;28;20295;-65
2021/07/07 07:23:23;;;;;;;;;;;;;;;;;;5069016;28;19933;-65
2021/07/07 07:25:49;;;;;;;;;;;;;;;;;;5075824;28;19924;-65
2021/07/07 07:28:16;;;;;;;;;;;;;;;;;;5074518;28;19925;-65
2021/07/07 07:30:45;;;;;;;;;;;;;;;;;;5067762;28;19924;-66
2021/07/07 07:33:12;;;;;;;;;;;;;;;;;;5066260;28;19976;-67
2021/07/07 07:35:41;;;;;;;;;;;;;;;;;;5070355;28;19931;-66
2021/07/07 07:38:12;;;;;;;;;;;;;;;;;;5069935;28;19924;-66
2021/07/07 07:40:41;;;;;;;;;;;;;;;;;;5063027;28;19955;-65
2021/07/07 07:43:08;;;;;;;;;;;;;;;;;;5070303;28;20018;-67
2021/07/07 07:45:35;;;;;;;;;;;;;;;;;;5073122;28;19987;-66
2021/07/07 07:48:02;;;;;;;;;;;;;;;;;;5075157;28;20376;-67
2021/07/07 07:50:29;;;;;;;;;;;;;;;;;;5068904;28;20382;-64
2021/07/07 07:52:56;;;;;;;;;;;;;;;;;;5067424;28;20380;-66
2021/07/07 07:55:23;;;;;;;;;;;;;;;;;;5063803;28;19925;-65
2021/07/07 07:57:50;;;;;;;;;;;;;;;;;;5069620;28;19924;-65
2021/07/07 08:00:17;;;;;;;;;;;;;;;;;;5073733;28;20028;-65
2021/07/07 08:02:44;;;;;;;;;;;;;;;;;;5070192;28;19947;-64
2021/07/07 08:05:10;;;;;;;;;;;;;;;;;;5070358;28;19924;-64
2021/07/07 08:07:38;;;;;;;;;;;;;;;;;;5068603;28;19931;-63
2021/07/07 08:10:05;;;;;;;;;;;;;;;;;;5070565;28;20035;-64
2021/07/07 08:12:32;;;;;;;;;;;;;;;;;;5070584;28;19929;-65
2021/07/07 08:14:59;;;;;;;;;;;;;;;;;;5069244;28;19943;-64
2021/07/07 08:17:26;;;;;;;;;;;;;;;;;;5072280;28;20304;-64
2021/07/07 08:19:53;;;;;;;;;;;;;;;;;;5079550;28;19935;-64
2021/07/07 08:22:20;;;;;;;;;;;;;;;;;;5066798;28;19930;-65
2021/07/07 08:24:47;;;;;;;;;;;;;;;;;;5064952;28;19931;-64
2021/07/07 08:27:14;;;;;;;;;;;;;;;;;;5070654;28;20256;-64
2021/07/07 08:29:41;;;;;;;;;;;;;;;;;;5068180;28;19925;-65
2021/07/07 08:32:08;;;;;;;;;;;;;;;;;;5066548;28;19930;-65
2021/07/07 08:34:35;;;;;;;;;;;;;;;;;;5069005;28;19924;-65
2021/07/07 08:37:02;;;;;;;;;;;;;;;;;;5067007;28;19943;-64
2021/07/07 08:39:29;;;;;;;;;;;;;;;;;;5069558;28;20377;-64
2021/07/07 08:41:56;;;;;;;;;;;;;;;;;;5068073;28;19931;-64
2021/07/07 08:44:24;;;;;;;;;;;;;;;;;;5069137;28;19939;-65
2021/07/07 08:46:52;;;;;;;;;;;;;;;;;;5069997;28;19939;-65
2021/07/07 08:49:19;;;;;;;;;;;;;;;;;;5069308;28;20215;-64
2021/07/07 08:51:46;;;;;;;;;;;;;;;;;;5068103;28;20296;-65
2021/07/07 08:54:13;;;;;;;;;;;;;;;;;;5065296;28;19929;-65
2021/07/07 08:56:41;;;;;;;;;;;;;;;;;;5071213;28;19928;-66
2021/07/07 08:59:08;;;;;;;;;;;;;;;;;;5069225;28;19972;-68
2021/07/07 09:01:35;;;;;;;;;;;;;;;;;;5071698;28;19933;-68
2021/07/07 09:04:02;;;;;;;;;;;;;;;;;;5069947;28;19935;-66
2021/07/07 09:06:29;;;;;;;;;;;;;;;;;;5065059;28;20297;-66
2021/07/07 09:08:56;;;;;;;;;;;;;;;;;;5068646;28;19971;-66
2021/07/07 09:11:23;;;;;;;;;;;;;;;;;;5067788;28;19947;-65
2021/07/07 09:13:50;;;;;;;;;;;;;;;;;;5069128;28;20354;-67
2021/07/07 09:16:17;;;;;;;;;;;;;;;;;;5067115;28;21395;-65
2021/07/07 09:18:44;;;;;;;;;;;;;;;;;;5065687;28;19928;-65
2021/07/07 09:21:11;;;;;;;;;;;;;;;;;;5069761;28;19924;-66
2021/07/07 09:23:38;;;;;;;;;;;;;;;;;;5067514;28;19925;-67
2021/07/07 09:26:05;;;;;;;;;;;;;;;;;;5071118;28;19931;-66
2021/07/07 09:28:32;;;;;;;;;;;;;;;;;;5068865;28;20031;-69
2021/07/07 09:31:00;;;;;;;;;;;;;;;;;;5070085;28;19925;-65
2021/07/07 09:33:27;;;;;;;;;;;;;;;;;;5062721;28;20388;-65
2021/07/07 09:35:54;;;;;;;;;;;;;;;;;;5070291;28;19924;-66
2021/07/07 09:38:21;;;;;;;;;;;;;;;;;;5069574;28;19924;-66
2021/07/07 09:40:48;;;;;;;;;;;;;;;;;;5070513;28;19924;-65
2021/07/07 09:43:15;;;;;;;;;;;;;;;;;;5066301;28;19924;-66
2021/07/07 09:45:42;;;;;;;;;;;;;;;;;;5070706;28;19942;-68
2021/07/07 09:48:09;;;;;;;;;;;;;;;;;;5069526;28;20296;-65
2021/07/07 09:50:36;;;;;;;;;;;;;;;;;;5069361;28;19930;-66
2021/07/07 09:53:03;;;;;;;;;;;;;;;;;;5067790;28;19924;-64
2021/07/07 09:55:30;;;;;;;;;;;;;;;;;;5068991;28;19933;-66
2021/07/07 09:57:59;;;;;;;;;;;;;;;;;;5073819;28;19946;-66
2021/07/07 10:00:26;;;;;;;;;;;;;;;;;;5068211;28;19967;-68
2021/07/07 10:02:53;;;;;;;;;;;;;;;;;;5063347;28;19931;-65
2021/07/07 10:05:20;;;;;;;;;;;;;;;;;;5066938;28;19931;-66
2021/07/07 10:07:47;;;;;;;;;;;;;;;;;;5068605;28;19931;-67
2021/07/07 10:10:14;;;;;;;;;;;;;;;;;;5061152;28;20307;-67
2021/07/07 10:12:41;;;;;;;;;;;;;;;;;;5062968;28;19947;-65
2021/07/07 10:15:08;;;;;;;;;;;;;;;;;;5070986;28;19924;-65
2021/07/07 10:17:35;;;;;;;;;;;;;;;;;;5068839;28;20019;-65
2021/07/07 10:20:02;;;;;;;;;;;;;;;;;;5069770;28;19928;-65
2021/07/07 10:22:29;;;;;;;;;;;;;;;;;;5063997;28;20311;-65
2021/07/07 10:24:56;;;;;;;;;;;;;;;;;;5062987;28;19925;-63
2021/07/07 10:27:23;;;;;;;;;;;;;;;;;;5069285;28;19931;-67
2021/07/07 10:29:50;;;;;;;;;;;;;;;;;;5066811;28;20007;-65
2021/07/07 10:32:17;;;;;;;;;;;;;;;;;;5068783;28;19947;-67
2021/07/07 10:34:44;;;;;;;;;;;;;;;;;;5069704;28;19931;-65
2021/07/07 10:37:11;;;;;;;;;;;;;;;;;;5067545;28;19931;-67
2021/07/07 10:39:38;;;;;;;;;;;;;;;;;;5068034;28;19925;-64
2021/07/07 10:42:05;;;;;;;;;;;;;;;;;;5067186;28;19924;-65
2021/07/07 10:44:31;;;;;;;;;;;;;;;;;;5069197;28;20415;-64
2021/07/07 10:46:59;;;;;;;;;;;;;;;;;;5066578;28;19926;-66
2021/07/07 10:49:26;;;;;;;;;;;;;;;;;;5066310;28;20360;-67
2021/07/07 10:51:53;;;;;;;;;;;;;;;;;;5069185;28;19933;-66
2021/07/07 10:54:20;;;;;;;;;;;;;;;;;;5066513;28;19932;-65
2021/07/07 10:56:47;;;;;;;;;;;;;;;;;;5059681;28;20273;-65
2021/07/07 10:59:14;;;;;;;;;;;;;;;;;;5063875;28;19972;-64
2021/07/07 11:01:41;;;;;;;;;;;;;;;;;;5070249;28;19924;-65
2021/07/07 11:04:08;;;;;;;;;;;;;;;;;;5057822;28;19929;-66
2021/07/07 11:06:38;;;;;;;;;;;;;;;;;;5063112;28;19943;-64
2021/07/07 11:09:05;;;;;;;;;;;;;;;;;;5061623;28;19925;-64
2021/07/07 11:11:32;;;;;;;;;;;;;;;;;;5063306;28;19939;-64
2021/07/07 11:13:59;;;;;;;;;;;;;;;;;;5062488;28;20446;-65
2021/07/07 11:16:26;;;;;;;;;;;;;;;;;;5069932;28;19932;-66
2021/07/07 11:18:53;;;;;;;;;;;;;;;;;;5066652;28;19939;-64
2021/07/07 11:21:20;;;;;;;;;;;;;;;;;;5070542;28;19940;-65
2021/07/07 11:23:47;;;;;;;;;;;;;;;;;;5067100;28;19925;-64
2021/07/07 11:26:14;;;;;;;;;;;;;;;;;;5070333;28;20020;-68
2021/07/07 11:28:42;;;;;;;;;;;;;;;;;;5069657;28;19924;-68
2021/07/07 11:31:09;;;;;;;;;;;;;;;;;;5065078;28;19932;-67
2021/07/07 11:33:36;;;;;;;;;;;;;;;;;;5065549;28;19924;-67
2021/07/07 11:36:03;;;;;;;;;;;;;;;;;;5067102;28;19933;-67
2021/07/07 11:38:30;;;;;;;;;;;;;;;;;;5066239;28;19925;-69
2021/07/07 11:40:57;;;;;;;;;;;;;;;;;;5067993;28;19924;-67
2021/07/07 11:43:26;;;;;;;;;;;;;;;;;;5065969;28;19938;-68
2021/07/07 11:45:53;;;;;;;;;;;;;;;;;;5067888;28;19932;-68
2021/07/07 11:48:21;;;;;;;;;;;;;;;;;;5069166;28;19924;-69
2021/07/07 11:50:49;;;;;;;;;;;;;;;;;;5067891;28;19994;-66
2021/07/07 11:53:16;;;;;;;;;;;;;;;;;;5067126;28;19924;-68
2021/07/07 11:55:43;;;;;;;;;;;;;;;;;;5061493;28;19924;-67
2021/07/07 11:58:10;;;;;;;;;;;;;;;;;;5065434;28;19924;-68
2021/07/07 12:00:37;;;;;;;;;;;;;;;;;;5066141;28;19939;-69
2021/07/07 12:03:04;;;;;;;;;;;;;;;;;;5065263;28;19932;-67
2021/07/07 12:05:31;;;;;;;;;;;;;;;;;;5063679;28;19947;-67
2021/07/07 12:07:58;;;;;;;;;;;;;;;;;;5068206;28;20315;-68
2021/07/07 12:10:25;;;;;;;;;;;;;;;;;;5067803;28;19931;-67
2021/07/07 12:12:52;;;;;;;;;;;;;;;;;;5063357;28;19934;-67
2021/07/07 12:15:19;;;;;;;;;;;;;;;;;;5065815;28;19955;-68
2021/07/07 12:17:46;;;;;;;;;;;;;;;;;;5065504;28;19932;-68
2021/07/07 12:20:13;;;;;;;;;;;;;;;;;;5067843;28;19930;-68
2021/07/07 12:22:40;;;;;;;;;;;;;;;;;;5066947;28;20281;-68
2021/07/07 12:25:07;;;;;;;;;;;;;;;;;;5064370;28;19924;-69
2021/07/07 12:27:34;;;;;;;;;;;;;;;;;;5068317;28;19924;-68
2021/07/07 12:30:01;;;;;;;;;;;;;;;;;;5064791;28;20008;-68
2021/07/07 12:32:28;;;;;;;;;;;;;;;;;;5071905;28;20005;-64
2021/07/07 12:34:55;;;;;;;;;;;;;;;;;;5077889;28;19979;-66
2021/07/07 12:37:22;;;;;;;;;;;;;;;;;;5070797;28;19978;-66
2021/07/07 12:39:49;;;;;;;;;;;;;;;;;;5068779;28;20410;-64
2021/07/07 12:42:18;;;;;;;;;;;;;;;;;;5067764;28;19924;-64
2021/07/07 12:44:45;;;;;;;;;;;;;;;;;;5071832;28;19928;-64
2021/07/07 12:47:12;;;;;;;;;;;;;;;;;;5068390;28;20339;-67
2021/07/07 12:49:39;;;;;;;;;;;;;;;;;;5066112;28;19951;-66
2021/07/07 12:52:06;;;;;;;;;;;;;;;;;;5065583;28;20023;-65
2021/07/07 12:54:33;;;;;;;;;;;;;;;;;;5067735;28;20277;-65
2021/07/07 12:57:00;;;;;;;;;;;;;;;;;;5061917;28;19932;-64
2021/07/07 12:59:27;;;;;;;;;;;;;;;;;;5065058;28;20015;-67
2021/07/07 13:01:54;;;;;;;;;;;;;;;;;;5063356;28;19930;-66
2021/07/07 13:04:21;;;;;;;;;;;;;;;;;;5059129;28;19935;-64
2021/07/07 13:06:48;;;;;;;;;;;;;;;;;;5063125;28;19931;-64
2021/07/07 13:09:15;;;;;;;;;;;;;;;;;;5065609;28;19924;-65
2021/07/07 13:11:44;;;;;;;;;;;;;;;;;;5062441;28;19928;-66
2021/07/07 13:14:11;;;;;;;;;;;;;;;;;;5068756;28;19924;-66
2021/07/07 13:16:38;;;;;;;;;;;;;;;;;;5070669;28;19924;-67
2021/07/07 13:19:05;;;;;;;;;;;;;;;;;;5064150;28;19930;-65
2021/07/07 13:21:32;;;;;;;;;;;;;;;;;;5066493;28;19951;-67
2021/07/07 13:23:59;;;;;;;;;;;;;;;;;;5064532;28;19931;-65
2021/07/07 13:26:26;;;;;;;;;;;;;;;;;;5064379;28;20288;-67
2021/07/07 13:28:54;;;;;;;;;;;;;;;;;;5074648;28;19924;-65
2021/07/07 13:31:21;;;;;;;;;;;;;;;;;;5058392;28;19925;-65
2021/07/07 13:33:48;;;;;;;;;;;;;;;;;;5068748;28;20017;-67
2021/07/07 13:36:15;;;;;;;;;;;;;;;;;;5074708;28;19924;-65
2021/07/07 13:38:42;;;;;;;;;;;;;;;;;;5069398;28;19934;-65
2021/07/07 13:41:09;;;;;;;;;;;;;;;;;;5069287;28;19931;-66
2021/07/07 13:43:36;;;;;;;;;;;;;;;;;;5069260;28;19924;-66
2021/07/07 13:46:03;;;;;;;;;;;;;;;;;;5067160;28;19924;-66
2021/07/07 13:48:30;;;;;;;;;;;;;;;;;;5060965;28;20030;-67
2021/07/07 13:50:57;;;;;;;;;;;;;;;;;;5062293;28;20349;-67
2021/07/07 13:53:24;;;;;;;;;;;;;;;;;;5060390;28;19932;-65
2021/07/07 13:55:51;;;;;;;;;;;;;;;;;;5062411;28;20019;-66
2021/07/07 13:58:18;;;;;;;;;;;;;;;;;;5059380;28;19943;-67
2021/07/07 14:00:45;;;;;;;;;;;;;;;;;;5062311;28;20026;-64
2021/07/07 14:03:12;;;;;;;;;;;;;;;;;;5064718;28;19929;-66
2021/07/07 14:05:39;;;;;;;;;;;;;;;;;;5062840;28;19924;-66
2021/07/07 14:08:06;;;;;;;;;;;;;;;;;;5060362;28;19980;-69
2021/07/07 14:10:33;;;;;;;;;;;;;;;;;;5066429;28;19925;-67
2021/07/07 14:13:00;;;;;;;;;;;;;;;;;;5063163;28;19924;-65
2021/07/07 14:15:27;;;;;;;;;;;;;;;;;;5062148;28;19931;-69
2021/07/07 14:17:54;;;;;;;;;;;;;;;;;;5063655;28;20415;-66
2021/07/07 14:20:21;;;;;;;;;;;;;;;;;;5062730;28;20563;-67
2021/07/07 14:22:48;;;;;;;;;;;;;;;;;;5064069;28;19932;-68
2021/07/07 14:25:15;;;;;;;;;;;;;;;;;;5059772;28;19924;-66
2021/07/07 14:27:42;;;;;;;;;;;;;;;;;;5064588;28;19929;-68
2021/07/07 14:30:11;;;;;;;;;;;;;;;;;;5061798;28;19948;-66
2021/07/07 14:32:38;;;;;;;;;;;;;;;;;;5060102;28;19943;-66
2021/07/07 14:35:05;;;;;;;;;;;;;;;;;;5062279;28;20074;-69
2021/07/07 14:37:32;;;;;;;;;;;;;;;;;;5064418;28;20835;-66
2021/07/07 14:39:59;;;;;;;;;;;;;;;;;;5063833;28;19925;-67
2021/07/07 14:42:26;;;;;;;;;;;;;;;;;;5062895;28;20053;-66
2021/07/07 14:44:53;;;;;;;;;;;;;;;;;;5059761;28;19928;-65
2021/07/07 14:47:20;;;;;;;;;;;;;;;;;;5056436;28;19925;-64
2021/07/07 14:49:47;;;;;;;;;;;;;;;;;;5064214;28;20299;-64
2021/07/07 14:52:14;;;;;;;;;;;;;;;;;;5065119;28;19931;-67
2021/07/07 14:54:41;;;;;;;;;;;;;;;;;;5068531;28;19924;-65
2021/07/07 14:57:08;;;;;;;;;;;;;;;;;;5062461;28;19939;-66
2021/07/07 14:59:35;;;;;;;;;;;;;;;;;;5063567;28;19971;-66
2021/07/07 15:02:02;;;;;;;;;;;;;;;;;;5069879;28;20730;-67
2021/07/07 15:04:29;;;;;;;;;;;;;;;;;;5069618;28;19932;-64
2021/07/07 15:06:56;;;;;;;;;;;;;;;;;;5070689;28;19925;-64
2021/07/07 15:09:23;;;;;;;;;;;;;;;;;;5069694;28;20402;-64
2021/07/07 15:11:50;;;;;;;;;;;;;;;;;;5061145;28;19936;-65
2021/07/07 15:14:17;;;;;;;;;;;;;;;;;;5070952;28;20007;-66
2021/07/07 15:16:44;;;;;;;;;;;;;;;;;;5059731;28;19963;-65
2021/07/07 15:19:11;;;;;;;;;;;;;;;;;;5059921;28;19989;-65
2021/07/07 15:21:38;;;;;;;;;;;;;;;;;;5073311;28;19931;-67
2021/07/07 15:24:05;;;;;;;;;;;;;;;;;;5066619;28;19931;-64
2021/07/07 15:26:32;;;;;;;;;;;;;;;;;;5070684;28;19931;-64
2021/07/07 15:28:59;;;;;;;;;;;;;;;;;;5068478;28;19931;-64
2021/07/07 15:31:26;;;;;;;;;;;;;;;;;;5065672;28;20300;-64
2021/07/07 15:33:53;;;;;;;;;;;;;;;;;;5073000;28;19931;-65
2021/07/07 15:36:20;;;;;;;;;;;;;;;;;;5072687;28;20415;-66
2021/07/07 15:38:47;;;;;;;;;;;;;;;;;;5065943;28;19972;-66
2021/07/07 15:41:14;;;;;;;;;;;;;;;;;;5066740;28;19924;-64
2021/07/07 15:43:41;;;;;;;;;;;;;;;;;;5067076;28;19931;-65
2021/07/07 15:46:10;;;;;;;;;;;;;;;;;;5070257;28;20039;-65
2021/07/07 15:48:37;;;;;;;;;;;;;;;;;;5067665;28;19978;-64
2021/07/07 15:51:04;;;;;;;;;;;;;;;;;;5070135;28;20388;-64
2021/07/07 15:53:31;;;;;;;;;;;;;;;;;;5065152;28;19931;-65
2021/07/07 15:55:58;;;;;;;;;;;;;;;;;;5066645;28;20346;-64
2021/07/07 15:58:25;;;;;;;;;;;;;;;;;;5061078;28;19947;-65
2021/07/07 16:00:52;;;;;;;;;;;;;;;;;;5070875;28;19924;-64
2021/07/07 16:03:19;;;;;;;;;;;;;;;;;;5067498;28;20391;-65
2021/07/07 16:05:46;;;;;;;;;;;;;;;;;;5069727;28;19931;-66
2021/07/07 16:08:14;;;;;;;;;;;;;;;;;;5065554;28;19935;-66
2021/07/07 16:10:41;;;;;;;;;;;;;;;;;;5065601;28;19924;-67
2021/07/07 16:13:08;;;;;;;;;;;;;;;;;;5065682;28;19924;-71
2021/07/07 16:15:35;;;;;;;;;;;;;;;;;;5068658;28;20303;-65
2021/07/07 16:18:02;;;;;;;;;;;;;;;;;;5059851;28;19925;-64
2021/07/07 16:20:29;;;;;;;;;;;;;;;;;;5065476;28;20296;-65
2021/07/07 16:22:56;;;;;;;;;;;;;;;;;;5064155;28;19932;-65
2021/07/07 16:25:26;;;;;;;;;;;;;;;;;;5063903;28;20007;-66
2021/07/07 16:27:54;;;;;;;;;;;;;;;;;;5068828;28;19924;-65
2021/07/07 16:30:21;;;;;;;;;;;;;;;;;;5067098;28;20376;-64
2021/07/07 16:32:48;;;;;;;;;;;;;;;;;;5064239;28;19924;-65
2021/07/07 16:35:15;;;;;;;;;;;;;;;;;;5071806;28;19924;-65
2021/07/07 16:37:42;;;;;;;;;;;;;;;;;;5063240;28;19932;-64
2021/07/07 16:40:09;;;;;;;;;;;;;;;;;;5068211;28;19978;-66
2021/07/07 16:42:36;;;;;;;;;;;;;;;;;;5067990;28;19947;-68
2021/07/07 16:45:03;;;;;;;;;;;;;;;;;;5071352;28;19929;-64
2021/07/07 16:47:30;;;;;;;;;;;;;;;;;;5064953;28;19931;-64